createdAt,value
2019-02-23T00:00:08.013Z,-3.53
2019-02-23T00:05:05.179Z,-3.83
2019-02-23T00:10:02.285Z,-3.86
2019-02-23T00:14:59.204Z,-3.74
2019-02-23T00:19:56.231Z,-3.73
2019-02-23T00:24:54.187Z,-3.80
2019-02-23T00:29:51.167Z,-3.74
2019-02-23T00:34:48.156Z,-3.75
2019-02-23T00:39:45.088Z,-3.65
2019-02-23T00:44:42.131Z,-4.24
2019-02-23T00:49:39.911Z,-4.13
2019-02-23T00:54:36.901Z,-4.01
2019-02-23T00:59:33.851Z,-4.06
2019-02-23T01:04:30.814Z,-4.14
2019-02-23T01:09:27.791Z,-4.08
2019-02-23T01:14:24.757Z,-4.06
2019-02-23T01:19:21.787Z,-4.19
2019-02-23T01:24:18.754Z,-4.06
2019-02-23T01:29:15.693Z,-4.20
2019-02-23T01:34:12.645Z,-4.32
2019-02-23T01:39:09.766Z,-4.51
2019-02-23T01:44:06.721Z,-4.55
2019-02-23T01:49:04.855Z,-4.63
2019-02-23T01:54:01.959Z,-4.56
2019-02-23T01:58:58.881Z,-4.50
2019-02-23T02:03:55.869Z,-4.44
2019-02-23T02:08:52.776Z,-4.57
2019-02-23T02:13:49.762Z,-4.59
2019-02-23T02:18:46.719Z,-4.74
2019-02-23T02:23:43.706Z,-4.69
2019-02-23T02:28:40.713Z,-4.74
2019-02-23T02:34:04.299Z,-4.94
2019-02-23T02:39:01.322Z,-4.80
2019-02-23T02:43:58.340Z,-5.02
2019-02-23T02:48:55.387Z,-5.02
2019-02-23T02:53:52.351Z,-5.16
2019-02-23T02:58:50.254Z,-5.23
2019-02-23T03:03:47.206Z,-5.38
2019-02-23T03:08:44.364Z,-5.43
2019-02-23T03:13:41.350Z,-5.37
2019-02-23T03:18:38.379Z,-5.37
2019-02-23T03:23:35.380Z,-5.22
2019-02-23T03:28:32.304Z,-5.29
2019-02-23T03:33:29.283Z,-5.38
2019-02-23T03:38:26.232Z,-5.54
2019-02-23T03:43:23.180Z,-5.45
2019-02-23T03:48:20.156Z,-5.38
2019-02-23T03:53:17.184Z,-5.48
2019-02-23T03:58:14.198Z,-5.39
2019-02-23T04:03:11.239Z,-5.55
2019-02-23T04:08:08.172Z,-5.62
2019-02-23T04:13:05.226Z,-5.60
2019-02-23T04:18:02.249Z,-5.56
2019-02-23T04:22:59.288Z,-5.60
2019-02-23T04:27:56.242Z,-5.66
2019-02-23T04:32:53.378Z,-5.71
2019-02-23T04:37:50.301Z,-5.67
2019-02-23T04:42:47.298Z,-5.78
2019-02-23T04:47:44.404Z,-5.60
2019-02-23T04:52:41.496Z,-5.78
2019-02-23T04:57:38.526Z,-5.73
2019-02-23T05:02:35.529Z,-5.79
2019-02-23T05:07:32.938Z,-5.78
2019-02-23T05:12:29.923Z,-5.92
2019-02-23T05:17:26.977Z,-5.92
2019-02-23T05:22:23.974Z,-5.83
2019-02-23T05:27:20.989Z,-5.87
2019-02-23T05:32:18.069Z,-5.92
2019-02-23T05:37:15.148Z,-5.94
2019-02-23T05:42:14.027Z,-6.00
2019-02-23T05:47:10.989Z,-5.82
2019-02-23T05:52:08.255Z,-5.73
2019-02-23T05:57:05.250Z,-5.69
2019-02-23T06:02:02.345Z,-5.60
2019-02-23T06:07:00.970Z,-5.55
2019-02-23T06:11:58.083Z,-5.10
2019-02-23T06:16:55.009Z,-4.19
2019-02-23T06:21:54.100Z,-3.51
2019-02-23T06:26:50.866Z,-3.72
2019-02-23T06:31:48.065Z,-3.52
2019-02-23T06:36:45.179Z,-2.75
2019-02-23T06:41:42.289Z,-2.64
2019-02-23T06:46:39.427Z,-1.80
2019-02-23T06:51:36.562Z,0.53
2019-02-23T06:56:33.593Z,0.83
2019-02-23T07:01:31.751Z,-0.42
2019-02-23T07:06:28.742Z,-2.41
2019-02-23T07:11:25.757Z,-2.74
2019-02-23T07:16:22.946Z,-1.70
2019-02-23T07:21:19.933Z,-1.47
2019-02-23T07:26:17.076Z,-1.82
2019-02-23T07:31:14.181Z,-2.52
2019-02-23T07:36:11.250Z,-1.85
2019-02-23T07:41:10.135Z,-0.92
2019-02-23T07:46:07.148Z,-0.89
2019-02-23T07:51:04.218Z,-0.65
2019-02-23T07:56:01.168Z,-0.82
2019-02-23T08:00:58.169Z,-1.01
2019-02-23T08:05:55.227Z,0.55
2019-02-23T08:10:54.232Z,1.16
2019-02-23T08:15:51.289Z,1.80
2019-02-23T08:20:49.337Z,2.01
2019-02-23T08:25:46.347Z,3.92
2019-02-23T08:30:43.446Z,3.85
2019-02-23T08:35:46.066Z,3.31
2019-02-23T08:40:43.236Z,3.61
2019-02-23T08:45:40.309Z,3.46
2019-02-23T08:50:39.266Z,3.60
2019-02-23T08:55:39.195Z,3.24
2019-02-23T09:00:38.033Z,4.70
2019-02-23T09:05:35.010Z,3.56
2019-02-23T09:10:32.270Z,3.22
2019-02-23T09:15:33.136Z,3.42
2019-02-23T09:20:30.156Z,3.71
2019-02-23T09:25:27.224Z,3.98
2019-02-23T09:30:24.187Z,3.60
2019-02-23T09:35:21.171Z,4.20
2019-02-23T09:40:21.188Z,3.73
2019-02-23T09:45:19.708Z,5.47
2019-02-23T09:50:19.711Z,5.36
2019-02-23T09:55:17.898Z,4.42
2019-02-23T10:00:16.850Z,4.18
2019-02-23T10:05:14.173Z,4.75
2019-02-23T10:10:13.267Z,5.04
2019-02-23T10:15:10.696Z,4.24
2019-02-23T10:20:12.112Z,4.75
2019-02-23T10:25:09.227Z,3.45
2019-02-23T10:30:15.348Z,2.79
2019-02-23T10:35:12.979Z,3.07
2019-02-23T10:40:11.450Z,3.73
2019-02-23T10:45:13.329Z,3.83
2019-02-23T10:50:14.335Z,3.92
2019-02-23T10:55:13.241Z,4.22
2019-02-23T11:00:21.838Z,3.12
2019-02-23T11:05:20.487Z,2.72
2019-02-23T11:10:19.686Z,4.65
2019-02-23T11:15:20.886Z,3.36
2019-02-23T11:20:18.598Z,2.98
2019-02-23T11:25:15.714Z,3.10
2019-02-23T11:30:16.135Z,2.72
2019-02-23T11:35:17.275Z,3.05
2019-02-23T11:40:17.793Z,3.34
2019-02-23T11:45:15.885Z,4.36
2019-02-23T11:50:13.615Z,2.76
2019-02-23T11:55:12.072Z,3.36
2019-02-23T12:00:13.862Z,3.77
2019-02-23T12:05:11.020Z,3.54
2019-02-23T12:10:11.435Z,2.94
2019-02-23T12:15:08.519Z,4.05
2019-02-23T12:20:09.773Z,3.79
2019-02-23T12:25:07.526Z,3.77
2019-02-23T12:30:07.825Z,4.32
2019-02-23T12:35:09.043Z,4.79
2019-02-23T12:40:07.997Z,3.69
2019-02-23T12:45:09.017Z,3.25
2019-02-23T12:50:09.903Z,3.54
2019-02-23T12:55:09.337Z,4.20
2019-02-23T13:00:16.591Z,4.66
2019-02-23T13:05:13.716Z,4.54
2019-02-23T13:10:12.788Z,4.13
2019-02-23T13:15:20.658Z,3.92
2019-02-23T13:20:35.220Z,3.77
2019-02-23T13:26:05.127Z,3.92
2019-02-23T13:31:33.712Z,3.75
2019-02-23T13:37:05.648Z,4.09
2019-02-23T13:42:22.586Z,4.15
2019-02-23T13:47:32.042Z,4.02
2019-02-23T13:53:05.803Z,3.39
2019-02-23T13:58:22.566Z,3.18
2019-02-23T14:04:02.591Z,2.70
2019-02-23T14:09:39.724Z,2.45
2019-02-23T14:14:47.892Z,2.62
2019-02-23T14:20:37.976Z,2.33
2019-02-23T14:26:07.572Z,2.29
2019-02-23T14:31:39.940Z,2.06
2019-02-23T14:41:49.451Z,1.20
2019-02-23T14:47:15.916Z,1.44
2019-02-23T14:52:50.168Z,1.24
2019-02-23T14:58:22.714Z,0.96
2019-02-23T15:03:28.683Z,0.59
2019-02-23T15:08:53.144Z,0.66
2019-02-23T15:14:24.704Z,0.33
2019-02-23T15:19:42.043Z,0.28
2019-02-23T15:25:30.754Z,0.21
2019-02-23T15:30:33.300Z,0.03
2019-02-23T15:35:59.724Z,0.11
2019-02-23T15:41:32.571Z,0.04
2019-02-23T15:46:41.035Z,0.02
2019-02-23T15:51:40.349Z,-0.16
2019-02-23T15:56:37.528Z,-0.24
2019-02-23T16:01:34.570Z,-0.18
2019-02-23T16:06:31.849Z,-0.17
2019-02-23T16:11:28.817Z,-0.23
2019-02-23T16:16:25.782Z,-0.30
2019-02-23T16:21:23.076Z,-0.38
2019-02-23T16:26:20.140Z,-0.54
2019-02-23T16:31:17.285Z,-0.44
2019-02-23T16:36:15.753Z,-0.34
2019-02-23T16:41:12.791Z,-0.53
2019-02-23T16:46:09.799Z,-0.69
2019-02-23T16:51:06.939Z,-0.77
2019-02-23T16:56:04.443Z,-0.92
2019-02-23T17:01:04.148Z,-0.97
2019-02-23T17:06:00.390Z,-1.01
2019-02-23T17:10:57.344Z,-0.98
2019-02-23T17:15:54.521Z,-1.07
2019-02-23T17:20:51.468Z,-1.29
2019-02-23T17:25:48.453Z,-1.46
2019-02-23T17:30:45.704Z,-1.49
2019-02-23T17:35:42.647Z,-1.66
2019-02-23T17:40:39.654Z,-1.56
2019-02-23T17:45:36.595Z,-1.68
2019-02-23T17:50:33.588Z,-2.02
2019-02-23T17:55:30.745Z,-1.99
2019-02-23T18:00:28.797Z,-2.10
2019-02-23T18:05:28.427Z,-2.08
2019-02-23T18:10:25.555Z,-2.00
2019-02-23T18:15:22.629Z,-2.07
2019-02-23T18:20:19.780Z,-2.25
2019-02-23T18:25:17.273Z,-2.34
2019-02-23T18:30:15.552Z,-2.52
2019-02-23T18:35:15.155Z,-2.48
2019-02-23T18:40:12.334Z,-2.45
2019-02-23T18:45:09.332Z,-2.63
2019-02-23T18:50:07.290Z,-2.77
2019-02-23T18:55:06.634Z,-2.92
2019-02-23T19:00:08.892Z,-3.01
2019-02-23T19:05:09.982Z,-3.15
2019-02-23T19:10:10.772Z,-3.06
2019-02-23T19:15:11.044Z,-3.10
2019-02-23T19:20:13.548Z,-3.10
2019-02-23T19:25:10.752Z,-3.17
2019-02-23T19:30:13.781Z,-3.33
2019-02-23T19:35:11.103Z,-3.47
2019-02-23T19:40:08.817Z,-3.37
2019-02-23T19:45:10.552Z,-3.54
2019-02-23T19:50:12.465Z,-3.59
2019-02-23T19:55:14.299Z,-3.56
2019-02-23T20:06:33.131Z,-3.67
2019-02-23T20:11:30.255Z,-3.75
2019-02-23T20:16:27.304Z,-3.84
2019-02-23T20:21:26.331Z,-3.86
2019-02-23T20:26:23.310Z,-4.09
2019-02-23T20:31:20.494Z,-3.94
2019-02-23T20:36:17.663Z,-3.72
2019-02-23T20:41:14.811Z,-3.52
2019-02-23T20:46:11.853Z,-3.56
2019-02-23T20:51:08.932Z,-3.47
2019-02-23T20:56:05.879Z,-3.42
2019-02-23T21:01:04.812Z,-3.12
2019-02-23T21:06:01.797Z,-3.19
2019-02-23T21:10:59.047Z,-3.22
2019-02-23T21:15:57.042Z,-2.91
2019-02-23T21:20:54.028Z,-2.97
2019-02-23T21:25:51.031Z,-3.02
2019-02-23T21:30:48.210Z,-3.05
2019-02-23T21:35:45.210Z,-3.01
2019-02-23T21:40:42.190Z,-3.46
2019-02-23T21:45:39.238Z,-3.31
2019-02-23T21:50:36.641Z,-3.58
2019-02-23T21:55:33.711Z,-3.47
2019-02-23T22:00:31.039Z,-3.22
2019-02-23T22:05:30.354Z,-2.95
2019-02-23T22:10:27.384Z,-2.84
2019-02-23T22:15:24.589Z,-2.77
2019-02-23T22:20:21.642Z,-2.59
2019-02-23T22:25:20.401Z,-2.54
2019-02-23T22:30:18.484Z,-2.35
2019-02-23T22:35:15.441Z,-2.16
2019-02-23T22:40:12.536Z,-2.20
2019-02-23T22:45:09.477Z,-2.10
2019-02-23T22:50:07.692Z,-1.98
2019-02-23T22:55:05.236Z,-1.86
2019-02-23T23:00:02.625Z,-1.85
2019-02-23T23:04:59.577Z,-2.20
2019-02-23T23:09:56.742Z,-2.19
2019-02-23T23:14:53.931Z,-2.13
2019-02-23T23:19:51.000Z,-1.95
2019-02-23T23:24:47.951Z,-2.08
2019-02-23T23:29:45.015Z,-2.01
2019-02-23T23:34:41.993Z,-2.20
2019-02-23T23:39:39.036Z,-2.00
2019-02-23T23:44:36.048Z,-2.24
2019-02-23T23:49:33.111Z,-2.31
2019-02-23T23:54:30.079Z,-2.27
2019-02-23T23:59:27.052Z,-2.18
